SVA1093 OERK-OEJN
Flight info
| Callsign | SVA1093 |
|---|---|
| Flight time | N/A |
| Altitude | 38000 |
| Route | DURMA G782 VEMEM |
| Aircraft | B77W/H-SDE1E2E3FGHIJ2J3J4J5M1RWXY/LB1D1 |
Departure
| Time | 2026-04-28 21:42 |
|---|---|
| Airport | King Khalid International Airport (OERK) |
Arrival
| Time | N/A |
|---|---|
| Airport | King Abdulaziz International Airport (OEJN) |
| Time | Latitude | Longitude | Altitude | Speed | Heading |
|---|---|---|---|---|---|
| 2026-04-28 21:13 | 24.95680 | 46.70738 | 2044 ft | 0 kts | 239° |
| 2026-04-28 21:33 | 24.95680 | 46.70739 | 2036 ft | 1 kts | 239° |
| 2026-04-28 21:34 | 24.95688 | 46.70753 | 2045 ft | 3 kts | 236° |
| 2026-04-28 21:34 | 24.95700 | 46.70772 | 2045 ft | 3 kts | 235° |
| 2026-04-28 21:34 | 24.95708 | 46.70786 | 2044 ft | 0 kts | 239° |
| 2026-04-28 21:34 | 24.95702 | 46.70776 | 2042 ft | 2 kts | 239° |
| 2026-04-28 21:35 | 24.95698 | 46.70767 | 2045 ft | 0 kts | 239° |
| 2026-04-28 21:36 | 24.95697 | 46.70730 | 2045 ft | 6 kts | 313° |
| 2026-04-28 21:36 | 24.95716 | 46.70738 | 2040 ft | 4 kts | 56° |
| 2026-04-28 21:36 | 24.95698 | 46.70786 | 2043 ft | 10 kts | 130° |
| 2026-04-28 21:37 | 24.95641 | 46.70838 | 2045 ft | 13 kts | 145° |
| 2026-04-28 21:37 | 24.95572 | 46.70885 | 2043 ft | 16 kts | 150° |
| 2026-04-28 21:37 | 24.95467 | 46.70945 | 2043 ft | 16 kts | 154° |
| 2026-04-28 21:37 | 24.95377 | 46.70994 | 2045 ft | 12 kts | 152° |
| 2026-04-28 21:38 | 24.95301 | 46.71001 | 2042 ft | 11 kts | 214° |
| 2026-04-28 21:38 | 24.95250 | 46.70923 | 2045 ft | 14 kts | 239° |
| 2026-04-28 21:38 | 24.95198 | 46.70816 | 2044 ft | 17 kts | 242° |
| 2026-04-28 21:38 | 24.95141 | 46.70708 | 2043 ft | 16 kts | 238° |
| 2026-04-28 21:39 | 24.95074 | 46.70595 | 2045 ft | 19 kts | 238° |
| 2026-04-28 21:39 | 24.95013 | 46.70467 | 2040 ft | 14 kts | 240° |
| 2026-04-28 21:39 | 24.94956 | 46.70358 | 2042 ft | 19 kts | 241° |
| 2026-04-28 21:39 | 24.94883 | 46.70214 | 2043 ft | 24 kts | 239° |
| 2026-04-28 21:40 | 24.94790 | 46.70044 | 2041 ft | 28 kts | 238° |
| 2026-04-28 21:40 | 24.94706 | 46.69893 | 2042 ft | 19 kts | 240° |
| 2026-04-28 21:40 | 24.94633 | 46.69749 | 2040 ft | 24 kts | 238° |
| 2026-04-28 21:40 | 24.94545 | 46.69590 | 2035 ft | 21 kts | 241° |
| 2026-04-28 21:41 | 24.94475 | 46.69452 | 2035 ft | 22 kts | 241° |
| 2026-04-28 21:41 | 24.94404 | 46.69311 | 2040 ft | 15 kts | 240° |
| 2026-04-28 21:41 | 24.94406 | 46.69194 | 2038 ft | 19 kts | 314° |
| 2026-04-28 21:41 | 24.94725 | 46.68986 | 2040 ft | 102 kts | 331° |
| 2026-04-28 21:42 | 24.95622 | 46.68421 | 2137 ft | 182 kts | 330° |
| 2026-04-28 21:42 | 24.96755 | 46.67701 | 3234 ft | 196 kts | 330° |
| 2026-04-28 21:42 | 24.97894 | 46.66848 | 4225 ft | 209 kts | 322° |
| 2026-04-28 21:42 | 24.99069 | 46.65745 | 4460 ft | 234 kts | 320° |
| 2026-04-28 21:43 | 25.00269 | 46.64447 | 4820 ft | 252 kts | 306° |
| 2026-04-28 21:43 | 25.00952 | 46.62609 | 5244 ft | 272 kts | 278° |
| 2026-04-28 21:43 | 25.00810 | 46.60444 | 5523 ft | 300 kts | 250° |
| 2026-04-28 21:43 | 24.99797 | 46.58395 | 6042 ft | 309 kts | 237° |
| 2026-04-28 21:44 | 24.98654 | 46.56365 | 6925 ft | 313 kts | 238° |
| 2026-04-28 21:44 | 24.97526 | 46.54296 | 7775 ft | 321 kts | 239° |
| 2026-04-28 21:44 | 24.96354 | 46.52129 | 8421 ft | 334 kts | 239° |
| 2026-04-28 21:44 | 24.95157 | 46.49910 | 9238 ft | 341 kts | 239° |
| 2026-04-28 21:45 | 24.93932 | 46.47636 | 10054 ft | 348 kts | 239° |
| 2026-04-28 21:45 | 24.92704 | 46.45329 | 10915 ft | 349 kts | 241° |
| 2026-04-28 21:45 | 24.91819 | 46.42841 | 11830 ft | 350 kts | 253° |
| 2026-04-28 21:45 | 24.91224 | 46.40243 | 12819 ft | 350 kts | 254° |
| 2026-04-28 21:46 | 24.90626 | 46.37640 | 13791 ft | 350 kts | 253° |
| 2026-04-28 21:46 | 24.90011 | 46.35046 | 14679 ft | 350 kts | 253° |
| 2026-04-28 21:46 | 24.89382 | 46.32459 | 15598 ft | 350 kts | 253° |
| 2026-04-28 21:46 | 24.88742 | 46.29870 | 16549 ft | 350 kts | 253° |
| 2026-04-28 21:47 | 24.88101 | 46.27296 | 17526 ft | 348 kts | 253° |
| 2026-04-28 21:47 | 24.87458 | 46.24726 | 18487 ft | 347 kts | 253° |
| 2026-04-28 21:47 | 24.86820 | 46.22179 | 19372 ft | 344 kts | 252° |
| 2026-04-28 21:47 | 24.86179 | 46.19647 | 20283 ft | 339 kts | 250° |
| 2026-04-28 21:48 | 24.85161 | 46.17354 | 21191 ft | 332 kts | 234° |
| 2026-04-28 21:48 | 24.83649 | 46.15457 | 22169 ft | 329 kts | 222° |
| 2026-04-28 21:48 | 24.81846 | 46.13942 | 23185 ft | 324 kts | 218° |
| 2026-04-28 21:48 | 24.80028 | 46.12515 | 24076 ft | 319 kts | 218° |
| 2026-04-28 21:49 | 24.78239 | 46.11114 | 24918 ft | 312 kts | 219° |
| 2026-04-28 21:49 | 24.76495 | 46.09739 | 25771 ft | 304 kts | 220° |